Time;durP1;ratioP1;P1;durP2;ratioP2;P2;SDS_P1;SDS_P2;PMS_P1;PMS_P2;Temp;Humidity;BMP_temperature;BMP_pressure;BME280_temperature;BME280_humidity;BME280_pressure;Samples;Min_cycle;Max_cycle;Signal;HPM_P1;HPM_P2
2022/04/27 00:00:02;;;;;;;6.30;5.63;;;;;;;6.44;100.00;101117.72;5006907;28;20196;-70
2022/04/27 00:02:52;;;;;;;8.13;6.33;;;;;;;6.41;100.00;101121.16;5008588;28;20204;-71
2022/04/27 00:05:33;;;;;;;8.73;6.07;;;;;;;6.38;100.00;101121.16;5008426;28;20224;-70
2022/04/27 00:08:07;;;;;;;7.77;6.20;;;;;;;6.34;100.00;101123.78;5012067;28;20731;-71
2022/04/27 00:10:42;;;;;;;8.13;6.40;;;;;;;6.29;100.00;101118.59;5010158;28;20205;-71
2022/04/27 00:13:35;;;;;;;7.37;6.03;;;;;;;6.23;100.00;101113.44;5006001;28;20551;-70
2022/04/27 00:16:21;;;;;;;8.20;6.13;;;;;;;6.20;100.00;101122.03;4998760;28;20284;-70
2022/04/27 00:18:55;;;;;;;6.70;5.70;;;;;;;6.20;100.00;101126.38;5004236;28;20215;-70
2022/04/27 00:21:38;;;;;;;7.77;5.50;;;;;;;6.19;100.00;101133.28;5013048;28;20203;-70
2022/04/27 00:24:10;;;;;;;6.70;5.90;;;;;;;6.12;100.00;101130.66;5005785;28;20204;-71
2022/04/27 00:26:51;;;;;;;6.63;5.93;;;;;;;6.06;100.00;101126.38;5005103;28;20197;-71
2022/04/27 00:29:32;;;;;;;7.47;5.97;;;;;;;6.01;100.00;101123.75;5004863;28;20223;-71
2022/04/27 00:32:15;;;;;;;7.03;5.73;;;;;;;5.96;100.00;101125.50;5005058;28;20785;-71
2022/04/27 00:34:54;;;;;;;6.67;5.80;;;;;;;5.93;100.00;101120.28;5004273;28;20196;-70
2022/04/27 00:37:25;;;;;;;9.30;5.60;;;;;;;5.94;100.00;101124.59;5020359;22;20247;-71
2022/04/27 00:40:03;;;;;;;7.10;5.70;;;;;;;5.93;100.00;101127.16;5021599;28;20204;-71
2022/04/27 00:42:29;;;;;;;7.77;5.70;;;;;;;5.83;100.00;101116.81;5018797;28;20199;-71
2022/04/27 00:45:03;;;;;;;7.63;6.20;;;;;;;5.78;100.00;101123.72;5024630;28;20200;-70
2022/04/27 00:47:40;;;;;;;8.60;5.83;;;;;;;5.74;100.00;101119.41;5021966;28;20595;-71
2022/04/27 00:50:15;;;;;;;7.97;6.67;;;;;;;5.70;100.00;101125.44;5027272;28;20199;-70
2022/04/27 00:52:55;;;;;;;8.73;6.20;;;;;;;5.62;100.00;101122.81;5023070;28;20210;-70
2022/04/27 00:55:44;;;;;;;7.23;6.43;;;;;;;5.59;100.00;101127.13;5021192;28;20215;-70
2022/04/27 00:58:32;;;;;;;7.43;6.30;;;;;;;5.52;100.00;101128.81;5034874;28;20346;-70
2022/04/27 01:01:07;;;;;;;6.90;6.20;;;;;;;5.47;100.00;101131.41;5023488;28;20196;-70
2022/04/27 01:03:44;;;;;;;7.13;5.80;;;;;;;5.38;100.00;101127.91;5017813;28;20199;-70
2022/04/27 01:06:21;;;;;;;7.60;6.20;;;;;;;5.30;100.00;101123.59;5020928;28;20275;-70
2022/04/27 01:09:04;;;;;;;7.27;6.00;;;;;;;5.21;100.00;101128.72;5019037;28;20199;-70
2022/04/27 01:11:51;;;;;;;7.93;6.30;;;;;;;5.15;100.00;101143.34;5022364;28;20217;-70
2022/04/27 01:17:08;;;;;;;8.87;6.53;;;;;;;5.15;100.00;101146.78;5017751;28;20247;-70
2022/04/27 01:19:45;;;;;;;9.50;6.60;;;;;;;4.98;100.00;101151.00;5015624;28;20203;-70
2022/04/27 01:22:18;;;;;;;8.87;6.60;;;;;;;4.90;100.00;101158.72;5020775;28;20291;-70
2022/04/27 01:24:51;;;;;;;7.57;6.27;;;;;;;4.85;100.00;101163.84;5032369;28;20204;-70
2022/04/27 01:27:32;;;;;;;7.80;6.00;;;;;;;4.80;100.00;101160.41;5019887;28;20215;-70
2022/04/27 01:30:23;;;;;;;7.50;5.83;;;;;;;4.75;100.00;101167.28;5019418;28;20210;-70
2022/04/27 01:33:42;;;;;;;8.37;6.30;;;;;;;4.65;100.00;101165.47;5023065;28;20254;-70
2022/04/27 01:36:20;;;;;;;7.03;6.27;;;;;;;4.59;100.00;101165.41;5021514;28;20634;-71
2022/04/27 01:38:57;;;;;;;8.33;6.07;;;;;;;4.57;100.00;101172.28;5022940;28;20647;-70
2022/04/27 01:41:33;;;;;;;14.17;6.40;;;;;;;4.57;100.00;101177.47;5020848;28;20199;-70
2022/04/27 01:44:07;;;;;;;10.50;7.47;;;;;;;4.62;100.00;101163.72;5024552;28;20204;-70
2022/04/27 01:46:41;;;;;;;9.13;6.97;;;;;;;4.56;100.00;101176.59;5037202;28;20204;-70
2022/04/27 01:49:13;;;;;;;8.83;7.10;;;;;;;4.44;100.00;101172.19;5014309;28;20232;-71
2022/04/27 01:54:49;;;;;;;8.93;6.57;;;;;;;4.42;100.00;101173.06;5023655;28;20551;-70
2022/04/27 01:57:29;;;;;;;8.70;6.70;;;;;;;4.35;100.00;101172.13;5022840;28;20230;-70
2022/04/27 02:00:08;;;;;;;8.37;6.47;;;;;;;4.34;100.00;101171.28;5018737;28;20683;-70
2022/04/27 02:03:00;;;;;;;10.20;6.73;;;;;;;4.38;100.00;101174.75;5022397;28;20287;-70
2022/04/27 02:05:45;;;;;;;7.67;6.47;;;;;;;4.36;100.00;101186.75;5020012;28;20205;-70
2022/04/27 02:08:15;;;;;;;9.17;7.23;;;;;;;4.43;100.00;101182.50;5039560;28;20219;-70
2022/04/27 02:11:01;;;;;;;11.37;8.03;;;;;;;4.47;100.00;101182.56;5019341;28;20750;-70
2022/04/27 02:13:37;;;;;;;9.87;7.23;;;;;;;4.51;100.00;101189.47;5037984;28;20200;-71
2022/04/27 02:16:11;;;;;;;8.70;7.03;;;;;;;4.53;100.00;101184.31;5032083;28;20234;-70
2022/04/27 02:22:18;;;;;;;10.07;7.30;;;;;;;4.62;100.00;101186.97;5020739;28;20231;-70
2022/04/27 02:25:05;;;;;;;10.67;7.30;;;;;;;4.61;100.00;101190.41;5019978;28;20199;-70
2022/04/27 02:28:00;;;;;;;9.40;7.07;;;;;;;4.72;100.00;101182.75;5021373;28;20781;-70
2022/04/27 02:30:32;;;;;;;8.53;7.33;;;;;;;4.74;100.00;101179.31;5019364;28;20212;-70
2022/04/27 02:33:13;;;;;;;10.23;7.70;;;;;;;4.73;100.00;101194.78;5037362;28;20212;-70
2022/04/27 02:35:49;;;;;;;8.30;7.07;;;;;;;4.76;100.00;101181.91;5034435;28;20204;-70
2022/04/27 02:38:30;;;;;;;9.20;7.70;;;;;;;4.79;100.00;101186.25;5020952;28;20282;-70
2022/04/27 02:41:07;;;;;;;11.37;8.23;;;;;;;4.83;100.00;101191.41;5020359;28;20707;-70
2022/04/27 02:43:41;;;;;;;12.40;8.20;;;;;;;4.87;100.00;101185.44;5021326;28;20220;-70
2022/04/27 02:46:27;;;;;;;9.20;7.67;;;;;;;4.91;100.00;101183.72;5018668;28;20485;-71
2022/04/27 02:51:53;;;;;;;9.20;7.40;;;;;;;4.96;100.00;101192.38;5020380;28;20571;-70
2022/04/27 02:54:55;;;;;;;11.77;8.20;;;;;;;5.03;100.00;101188.97;5004063;28;20219;-71
2022/04/27 02:57:24;;;;;;;11.00;6.97;;;;;;;5.07;100.00;101184.69;5018716;28;20231;-70
2022/04/27 03:00:30;;;;;;;9.93;8.17;;;;;;;5.08;100.00;101186.38;5020870;28;20225;-70
2022/04/27 03:03:07;;;;;;;9.03;7.53;;;;;;;5.11;100.00;101191.59;5019928;28;20238;-70
2022/04/27 03:05:40;;;;;;;9.57;7.03;;;;;;;5.14;100.00;101186.44;5017681;28;20750;-70
2022/04/27 03:08:09;;;;;;;11.90;8.43;;;;;;;5.18;100.00;101188.16;5022974;28;20285;-70
2022/04/27 03:10:57;;;;;;;9.70;7.53;;;;;;;5.21;100.00;101189.94;5022761;28;20202;-70
2022/04/27 03:13:50;;;;;;;10.93;7.80;;;;;;;5.24;100.00;101192.50;5024311;28;20287;-70
2022/04/27 03:16:30;;;;;;;8.67;7.40;;;;;;;5.28;100.00;101194.28;5026213;28;20199;-70
2022/04/27 03:21:54;;;;;;;9.80;7.63;;;;;;;5.32;100.00;101202.03;5021850;28;20246;-70
2022/04/27 03:24:26;;;;;;;12.47;8.80;;;;;;;5.36;100.00;101199.47;5025149;28;20211;-70
2022/04/27 03:27:00;;;;;;;13.77;9.83;;;;;;;5.37;100.00;101208.97;5021081;28;20238;-70
2022/04/27 03:29:44;;;;;;;10.13;9.00;;;;;;;5.40;100.00;101211.53;5039999;28;20208;-71
2022/04/27 03:32:22;;;;;;;10.33;7.83;;;;;;;5.42;100.00;101212.44;5023889;28;20211;-70
2022/04/27 03:35:10;;;;;;;9.37;7.43;;;;;;;5.42;100.00;101207.25;5028346;28;20219;-71
2022/04/27 03:37:50;;;;;;;10.00;8.20;;;;;;;5.45;100.00;101218.50;5023934;28;20281;-70
2022/04/27 03:40:24;;;;;;;8.60;7.30;;;;;;;5.44;100.00;101214.16;5042042;28;20392;-70
2022/04/27 03:42:58;;;;;;;7.67;6.70;;;;;;;5.47;100.00;101219.34;5019919;28;20976;-70
2022/04/27 03:48:39;;;;;;;10.43;7.37;;;;;;;5.47;100.00;101224.53;5023703;28;20219;-71
2022/04/27 03:51:10;;;;;;;9.23;6.90;;;;;;;5.49;100.00;101227.97;5036431;28;20203;-70
2022/04/27 03:53:56;;;;;;;12.77;7.83;;;;;;;5.52;100.00;101236.59;5024043;28;20562;-70
2022/04/27 03:56:28;;;;;;;8.67;7.70;;;;;;;5.52;100.00;101241.78;5021701;28;20254;-70
2022/04/27 03:58:59;;;;;;;8.63;7.27;;;;;;;5.46;100.00;101260.72;5024015;28;20212;-70
2022/04/27 04:01:41;;;;;;;13.27;9.50;;;;;;;5.41;100.00;101262.41;5021565;28;20235;-70
2022/04/27 04:04:16;;;;;;;11.43;9.33;;;;;;;5.41;100.00;101263.28;5034977;28;20565;-70
2022/04/27 04:07:02;;;;;;;11.80;9.33;;;;;;;5.40;100.00;101264.16;5032853;28;20270;-70
2022/04/27 04:09:41;;;;;;;10.07;8.30;;;;;;;5.46;100.00;101261.56;5017363;28;20722;-68
2022/04/27 04:12:16;;;;;;;11.67;9.17;;;;;;;5.49;100.00;101268.50;5035152;28;20642;-70
2022/04/27 04:15:05;;;;;;;12.17;8.90;;;;;;;5.48;100.00;101270.22;5016370;28;20273;-70
2022/04/27 04:17:57;;;;;;;11.03;8.80;;;;;;;5.52;100.00;101276.25;5020594;28;20587;-70
2022/04/27 04:20:44;;;;;;;11.47;9.53;;;;;;;5.54;100.00;101271.97;5030836;28;20211;-70
2022/04/27 04:23:34;;;;;;;15.03;10.30;;;;;;;5.58;100.00;101270.28;5017242;28;20211;-70
2022/04/27 04:29:15;;;;;;;11.70;8.97;;;;;;;5.63;100.00;101279.78;5032449;28;20200;-70
2022/04/27 04:31:50;;;;;;;13.70;9.67;;;;;;;5.66;100.00;101279.81;5021270;28;20211;-70
2022/04/27 04:34:34;;;;;;;12.37;9.17;;;;;;;5.63;100.00;101292.72;5017396;28;20215;-70
2022/04/27 04:37:13;;;;;;;13.27;8.83;;;;;;;5.72;100.00;101288.41;5018585;28;20527;-70
2022/04/27 04:39:50;;;;;;;13.03;9.17;;;;;;;5.76;100.00;101293.63;5017785;28;20210;-70
2022/04/27 04:42:19;;;;;;;10.50;8.50;;;;;;;5.75;100.00;101302.28;5033311;28;20199;-70
2022/04/27 04:45:11;;;;;;;11.43;9.07;;;;;;;5.79;100.00;101309.19;5012394;28;20291;-70
2022/04/27 04:48:26;;;;;;;13.27;9.77;;;;;;;5.80;100.00;101305.72;5031952;28;20223;-70
2022/04/27 04:51:22;;;;;;;11.40;9.57;;;;;;;5.82;100.00;101316.97;5010671;28;20597;-71
2022/04/27 04:53:56;;;;;;;12.30;9.50;;;;;;;5.90;100.00;101319.56;5020629;28;20211;-71
2022/04/27 04:56:38;;;;;;;14.27;9.50;;;;;;;5.93;100.00;101329.06;5034763;28;20207;-71
2022/04/27 04:59:36;;;;;;;12.73;9.83;;;;;;;5.95;100.00;101325.63;5017106;28;20204;-71
2022/04/27 05:02:13;;;;;;;12.57;9.60;;;;;;;5.95;100.00;101335.13;5018178;28;20282;-71
2022/04/27 05:05:30;;;;;;;10.60;8.80;;;;;;;6.02;100.00;101337.78;5019296;28;20234;-70
2022/04/27 05:08:28;;;;;;;12.87;10.30;;;;;;;6.08;100.00;101339.50;5022052;28;20900;-71
2022/04/27 05:11:17;;;;;;;10.70;9.00;;;;;;;6.16;100.00;101348.19;5031140;28;20202;-71
2022/04/27 05:17:16;;;;;;;12.40;9.10;;;;;;;6.26;100.00;101354.25;5152706;27;20705;-71
2022/04/27 05:20:22;;;;;;;10.93;8.70;;;;;;;6.30;100.00;101357.72;5119211;28;20242;-70
2022/04/27 05:23:19;;;;;;;10.60;8.73;;;;;;;6.32;100.00;101359.47;5117182;28;20195;-70
2022/04/27 05:26:22;;;;;;;11.77;9.03;;;;;;;6.35;100.00;101372.44;5120702;28;20581;-70
2022/04/27 05:32:52;;;;;;;10.80;8.60;;;;;;;6.42;100.00;101375.88;5128667;27;20208;-70
2022/04/27 05:35:41;;;;;;;11.80;9.30;;;;;;;6.49;100.00;101376.78;5122245;28;20714;-70
2022/04/27 05:38:36;;;;;;;10.60;9.17;;;;;;;6.53;100.00;101383.72;5118801;27;20724;-70
2022/04/27 05:41:23;;;;;;;12.17;8.50;;;;;;;6.55;100.00;101387.16;5119578;28;20745;-70
2022/04/27 05:44:12;;;;;;;12.63;8.73;;;;;;;6.59;100.00;101394.06;5098234;28;20272;-70
2022/04/27 05:47:08;;;;;;;8.57;7.47;;;;;;;6.62;100.00;101399.28;5120141;28;20825;-70
2022/04/27 05:50:23;;;;;;;13.20;7.97;;;;;;;6.70;100.00;101409.66;5083389;28;20336;-70
2022/04/27 05:53:06;;;;;;;15.33;12.73;;;;;;;6.73;100.00;101407.94;5057125;28;20693;-70
2022/04/27 05:56:14;;;;;;;45.87;41.03;;;;;;;6.77;100.00;101408.78;5107475;28;20228;-70
2022/04/27 05:58:53;;;;;;;10.60;9.13;;;;;;;6.80;100.00;101414.84;5122871;27;20307;-70
2022/04/27 06:01:50;;;;;;;12.50;9.07;;;;;;;6.83;100.00;101414.00;5086991;27;20208;-70
2022/04/27 06:04:27;;;;;;;10.60;8.40;;;;;;;6.89;100.00;101411.41;5120684;28;20196;-70
2022/04/27 06:06:58;;;;;;;12.57;11.27;;;;;;;6.94;100.00;101419.22;5120501;28;20209;-70
2022/04/27 06:09:40;;;;;;;45.17;40.37;;;;;;;6.98;100.00;101427.00;5121605;28;20313;-70
2022/04/27 06:12:48;;;;;;;21.10;18.30;;;;;;;7.00;100.00;101437.34;5119201;27;20192;-70
2022/04/27 06:15:42;;;;;;;11.97;9.23;;;;;;;7.02;100.00;101433.06;5121187;28;20219;-70
2022/04/27 06:18:45;;;;;;;13.30;8.70;;;;;;;7.07;100.00;101444.31;5116653;28;20216;-70
2022/04/27 06:21:31;;;;;;;13.83;10.30;;;;;;;7.08;100.00;101435.66;5121919;28;20219;-70
2022/04/27 06:24:15;;;;;;;9.63;8.37;;;;;;;7.14;100.00;101439.97;5118930;28;20737;-70
2022/04/27 06:27:14;;;;;;;14.20;10.50;;;;;;;7.15;100.00;101439.97;5113795;28;20224;-70
2022/04/27 06:29:48;;;;;;;15.20;11.23;;;;;;;7.16;100.00;101446.91;5115299;27;20228;-70
2022/04/27 06:32:36;;;;;;;27.97;18.27;;;;;;;7.21;100.00;101441.69;5100503;28;20205;-70
2022/04/27 06:35:13;;;;;;;18.80;12.83;;;;;;;7.25;100.00;101447.78;5104922;27;20190;-70
2022/04/27 06:37:54;;;;;;;10.60;7.80;;;;;;;7.27;100.00;101453.84;5107184;27;20229;-70
2022/04/27 06:40:30;;;;;;;10.17;7.77;;;;;;;7.30;100.00;101459.88;5108158;28;20232;-70
2022/04/27 06:43:23;;;;;;;11.07;7.83;;;;;;;7.32;100.00;101459.91;5108027;27;20966;-70
2022/04/27 06:45:59;;;;;;;9.47;8.17;;;;;;;7.37;100.00;101463.34;5108451;28;20744;-70
2022/04/27 06:49:07;;;;;;;10.63;7.53;;;;;;;7.45;100.00;101464.19;5042878;28;20286;-70
2022/04/27 06:51:57;;;;;;;11.67;9.17;;;;;;;7.46;100.00;101473.72;5065093;28;20223;-70
2022/04/27 06:55:03;;;;;;;10.73;7.97;;;;;;;7.46;100.00;101473.72;5108522;27;20222;-70
2022/04/27 06:58:02;;;;;;;10.07;7.87;;;;;;;7.47;100.00;101477.19;5108274;28;20599;-70
2022/04/27 07:00:52;;;;;;;11.73;8.27;;;;;;;7.48;100.00;101484.13;5107752;27;20615;-69
2022/04/27 07:03:31;;;;;;;13.70;8.73;;;;;;;7.51;100.00;101487.56;5105428;27;20627;-70
2022/04/27 07:06:14;;;;;;;47.40;22.73;;;;;;;7.51;100.00;101494.47;5108100;28;20196;-70
2022/04/27 07:08:52;;;;;;;17.40;9.50;;;;;;;7.50;100.00;101496.22;5111712;27;20247;-70
2022/04/27 07:11:22;;;;;;;12.43;9.07;;;;;;;7.53;100.00;101497.97;5104661;28;20200;-70
2022/04/27 07:14:01;;;;;;;11.23;8.40;;;;;;;7.54;100.00;101497.94;5103870;28;20201;-70
2022/04/27 07:16:46;;;;;;;10.87;8.57;;;;;;;7.57;100.00;101497.09;5100583;28;20217;-70
2022/04/27 07:19:32;;;;;;;10.03;8.80;;;;;;;7.58;99.74;101496.19;5108613;28;20227;-70
2022/04/27 07:22:07;;;;;;;9.17;8.10;;;;;;;7.58;99.72;101507.47;5101458;28;20291;-70
2022/04/27 07:24:38;;;;;;;14.40;10.23;;;;;;;7.63;100.00;101501.41;5105591;28;20212;-70
2022/04/27 07:27:09;;;;;;;11.97;9.30;;;;;;;7.63;100.00;101499.66;5105843;28;20217;-70
2022/04/27 07:29:50;;;;;;;13.77;9.50;;;;;;;7.62;100.00;101508.34;5108148;28;20275;-70
2022/04/27 07:32:46;;;;;;;11.53;9.53;;;;;;;7.62;100.00;101505.75;5107518;28;20191;-69
2022/04/27 07:35:18;;;;;;;13.47;9.90;;;;;;;7.62;100.00;101513.53;5020789;28;20730;-70
2022/04/27 07:38:00;;;;;;;24.83;15.83;;;;;;;7.67;100.00;101511.78;5024243;28;20620;-70
2022/04/27 07:40:48;;;;;;;13.67;10.33;;;;;;;7.64;100.00;101522.16;5108374;27;20188;-70
2022/04/27 07:43:28;;;;;;;14.50;10.80;;;;;;;7.71;100.00;101521.31;5105344;28;20277;-70
2022/04/27 07:46:01;;;;;;;49.87;24.30;;;;;;;7.69;100.00;101520.44;5108673;27;20676;-70
2022/04/27 07:48:42;;;;;;;40.07;19.83;;;;;;;7.69;100.00;101532.56;5107269;28;20225;-70
2022/04/27 07:51:19;;;;;;;24.83;14.70;;;;;;;7.78;100.00;101537.75;5104393;27;20978;-70
2022/04/27 07:54:05;;;;;;;;;;;;;;;;;;;;;
2022/04/27 07:56:32;;;;;;;15.13;10.97;;;;;;;7.89;100.00;101536.00;5107767;28;20215;-70
2022/04/27 07:58:59;;;;;;;17.13;12.07;;;;;;;7.99;100.00;101538.63;5108233;27;20755;-70
2022/04/27 08:01:40;;;;;;;16.73;12.10;;;;;;;8.08;100.00;101539.47;5107691;28;20282;-70
2022/04/27 08:04:12;;;;;;;14.70;9.93;;;;;;;8.07;100.00;101550.72;5108436;27;20194;-70
2022/04/27 08:06:50;;;;;;;17.13;12.43;;;;;;;8.17;100.00;101543.78;5106131;28;20771;-70
2022/04/27 08:09:34;;;;;;;13.00;10.33;;;;;;;8.24;100.00;101545.50;5106999;28;20220;-70
2022/04/27 08:12:13;;;;;;;13.23;9.87;;;;;;;8.34;100.00;101547.22;5105330;27;20251;-70
2022/04/27 08:14:44;;;;;;;13.27;9.67;;;;;;;8.43;100.00;101550.69;5108778;27;20192;-70
2022/04/27 08:17:25;;;;;;;57.83;38.97;;;;;;;8.50;99.39;101555.00;5104883;27;20220;-70
2022/04/27 08:21:13;;;;;;;24.73;17.57;;;;;;;8.62;99.72;101549.78;5107619;28;20203;-70
2022/04/27 08:22:41;;;;;;;15.03;12.10;;;;;;;8.74;99.67;101563.59;5104961;28;20257;-70
2022/04/27 08:28:04;;;;;;;12.97;10.67;;;;;;;9.01;100.00;101552.22;5102216;27;20707;-70
2022/04/27 08:30:48;;;;;;;14.07;11.00;;;;;;;9.17;100.00;101564.28;5104860;28;20204;-70
2022/04/27 08:36:05;;;;;;;11.97;10.37;;;;;;;9.29;99.57;101565.94;5101522;28;20221;-70
2022/04/27 08:38:48;;;;;;;12.03;10.07;;;;;;;9.39;98.84;101570.22;5104349;28;20225;-69
2022/04/27 08:41:15;;;;;;;13.47;9.80;;;;;;;9.44;97.18;101570.19;5105158;27;20220;-70
2022/04/27 08:43:48;;;;;;;12.20;10.10;;;;;;;9.53;96.62;101577.91;5100591;27;20203;-70
2022/04/27 08:46:17;;;;;;;12.60;9.43;;;;;;;9.62;94.18;101583.09;5103602;28;20683;-70
2022/04/27 08:48:52;;;;;;;13.60;8.47;;;;;;;9.62;91.08;101593.50;5104276;28;20303;-70
2022/04/27 08:51:34;;;;;;;16.00;10.37;;;;;;;9.72;95.46;101580.41;5100722;28;20731;-70
2022/04/27 08:54:03;;;;;;;11.73;8.30;;;;;;;9.68;92.30;101590.00;5101276;28;20292;-70
2022/04/27 08:56:37;;;;;;;8.87;7.80;;;;;;;9.75;93.29;101583.00;5101386;28;20208;-71
2022/04/27 08:59:24;;;;;;;12.97;9.70;;;;;;;9.83;94.26;101578.59;5105525;28;20204;-70
2022/04/27 09:02:07;;;;;;;;;;;;;;;;;;;;;
2022/04/27 09:04:41;;;;;;;11.10;8.63;;;;;;;9.83;91.42;101587.28;5105121;28;20193;-70
2022/04/27 09:07:18;;;;;;;9.93;8.93;;;;;;;9.88;90.35;101595.03;5106409;27;20437;-70
2022/04/27 09:09:57;;;;;;;12.67;10.00;;;;;;;10.07;94.96;101585.34;5102219;28;20289;-70
2022/04/27 09:12:33;;;;;;;13.70;9.70;;;;;;;10.16;94.64;101587.00;5100475;28;20213;-70
2022/04/27 09:15:08;;;;;;;11.00;9.03;;;;;;;10.45;95.47;101591.09;5104386;28;20486;-70
2022/04/27 09:23:37;;;;;;;15.73;10.17;;;;;;;10.96;94.45;101588.81;5107187;28;20195;-70
2022/04/27 09:26:16;;;;;;;13.87;9.53;;;;;;;11.07;91.69;101589.50;5108299;28;20236;-70
2022/04/27 09:28:48;;;;;;;12.60;9.97;;;;;;;11.08;90.72;101587.75;5103781;28;20262;-70
2022/04/27 09:31:38;;;;;;;12.27;8.93;;;;;;;11.33;91.69;101591.78;5104475;28;20241;-70
2022/04/27 09:34:27;;;;;;;11.73;9.07;;;;;;;11.45;88.58;101582.03;5103905;28;20226;-70
2022/04/27 09:37:03;;;;;;;10.53;8.33;;;;;;;11.62;85.44;101595.72;5103024;28;20750;-70
2022/04/27 09:39:36;;;;;;;16.60;11.40;;;;;;;11.73;82.27;101583.38;5103874;28;20190;-70
2022/04/27 09:42:06;;;;;;;10.27;8.47;;;;;;;11.74;83.37;101584.22;5101882;28;20286;-70
2022/04/27 09:44:43;;;;;;;9.77;8.40;;;;;;;11.93;86.17;101583.06;5104938;28;20205;-70
2022/04/27 09:47:21;;;;;;;9.93;8.13;;;;;;;12.07;84.44;101587.22;5107920;28;20420;-70
2022/04/27 09:50:00;;;;;;;11.70;9.13;;;;;;;12.19;84.05;101581.78;5103240;28;20208;-70
2022/04/27 09:52:33;;;;;;;11.53;8.37;;;;;;;12.30;83.08;101579.81;5101525;28;20261;-70
2022/04/27 09:55:08;;;;;;;13.37;8.50;;;;;;;12.50;84.07;101570.72;5102805;28;20196;-70
2022/04/27 09:57:57;;;;;;;11.73;8.13;;;;;;;12.79;83.07;101578.03;5102909;28;20250;-70
2022/04/27 10:00:37;;;;;;;10.50;7.60;;;;;;;12.80;77.71;101579.72;5100232;28;20208;-70
2022/04/27 10:03:06;;;;;;;10.17;7.50;;;;;;;12.92;81.51;101573.38;5102561;28;20201;-70
2022/04/27 10:05:38;;;;;;;9.73;7.07;;;;;;;13.11;80.31;101568.63;5105014;28;20616;-70
2022/04/27 10:08:20;;;;;;;8.37;7.07;;;;;;;13.42;76.14;101574.09;5106743;27;20234;-70
2022/04/27 10:10:53;;;;;;;8.93;6.13;;;;;;;13.64;71.30;101586.69;5107045;28;20204;-71
2022/04/27 10:13:25;;;;;;;11.53;8.80;;;;;;;13.81;71.12;101581.91;5103297;28;20206;-70
2022/04/27 10:15:54;;;;;;;9.97;7.00;;;;;;;13.96;72.73;101571.91;5107670;28;20212;-71
2022/04/27 10:18:29;;;;;;;8.27;6.43;;;;;;;14.13;69.91;101572.34;5101285;28;20225;-70
2022/04/27 10:21:01;;;;;;;6.67;5.80;;;;;;;14.43;68.48;101571.59;5108830;28;20203;-71
2022/04/27 10:23:48;;;;;;;8.63;5.73;;;;;;;14.56;62.75;101578.22;5107688;28;20246;-71
2022/04/27 10:26:32;;;;;;;5.97;4.80;;;;;;;14.57;53.38;101599.16;5104369;28;20570;-70
2022/04/27 10:29:12;;;;;;;6.43;4.00;;;;;;;14.58;53.19;101600.94;5105203;28;20193;-70
2022/04/27 10:32:06;;;;;;;4.10;3.70;;;;;;;14.92;52.75;101594.72;5104586;28;20629;-71
2022/04/27 10:35:07;;;;;;;4.87;4.10;;;;;;;15.17;49.97;101593.16;5104890;27;20195;-71
2022/04/27 10:37:54;;;;;;;3.87;3.47;;;;;;;15.54;52.65;101574.47;5105518;28;20222;-70
2022/04/27 10:40:34;;;;;;;3.97;3.57;;;;;;;15.51;47.23;101587.69;5102394;28;21017;-71
2022/04/27 10:43:11;;;;;;;4.13;3.50;;;;;;;15.45;46.23;101590.53;5106678;28;20272;-70
2022/04/27 10:45:44;;;;;;;3.20;2.90;;;;;;;15.46;48.05;101587.88;5101246;28;20218;-70
2022/04/27 10:48:18;;;;;;;5.03;3.47;;;;;;;15.64;47.22;101586.41;5103785;28;20221;-70
2022/04/27 10:51:12;;;;;;;5.27;3.63;;;;;;;15.71;47.27;101576.56;5108284;27;20193;-70
2022/04/27 10:54:11;;;;;;;4.13;3.47;;;;;;;15.70;45.02;101586.19;5104210;27;20643;-70
2022/04/27 10:56:40;;;;;;;2.90;2.47;;;;;;;15.46;45.22;101585.25;5103894;28;20216;-70
2022/04/27 10:59:51;;;;;;;3.13;2.53;;;;;;;15.33;43.95;101597.88;5102012;27;20217;-71
2022/04/27 11:02:34;;;;;;;2.87;2.47;;;;;;;15.38;45.18;101594.25;5099749;28;20250;-70
2022/04/27 11:05:06;;;;;;;4.67;3.00;;;;;;;15.35;46.40;101584.69;5103728;28;20197;-71
2022/04/27 11:07:44;;;;;;;3.00;2.63;;;;;;;15.39;44.53;101590.72;5101378;28;20209;-70
2022/04/27 11:10:16;;;;;;;2.97;2.33;;;;;;;15.48;43.84;101587.81;5105314;28;20193;-70
2022/04/27 11:12:55;;;;;;;2.67;2.47;;;;;;;15.40;41.69;101590.66;5105347;27;20197;-70
2022/04/27 11:15:31;;;;;;;3.00;2.70;;;;;;;15.43;40.14;101593.22;5105522;28;20229;-71
2022/04/27 11:18:03;;;;;;;3.93;3.37;;;;;;;15.48;40.13;101590.44;5111551;27;20212;-71
2022/04/27 11:20:54;;;;;;;2.80;2.40;;;;;;;15.51;41.55;101578.06;5100912;28;20200;-70
2022/04/27 11:23:30;;;;;;;5.23;2.87;;;;;;;15.47;41.84;101596.59;5103528;28;20201;-70
2022/04/27 11:26:03;;;;;;;4.20;2.20;;;;;;;15.51;43.53;101588.59;5101662;28;20288;-70
2022/04/27 11:28:37;;;;;;;3.17;2.70;;;;;;;15.57;41.29;101581.41;5097879;28;20223;-71
2022/04/27 11:31:09;;;;;;;3.13;2.70;;;;;;;15.63;41.99;101587.31;5104366;28;20224;-71
2022/04/27 11:33:43;;;;;;;4.73;2.40;;;;;;;15.64;43.22;101585.56;5099410;27;20285;-70
2022/04/27 11:36:25;;;;;;;6.17;2.63;;;;;;;15.60;42.99;101589.19;5100367;28;20196;-71
2022/04/27 11:38:58;;;;;;;3.27;2.53;;;;;;;15.37;42.42;101597.78;5100528;28;20208;-70
2022/04/27 11:41:40;;;;;;;3.17;2.47;;;;;;;15.26;41.51;101595.50;5105806;27;20193;-71
2022/04/27 11:44:37;;;;;;;3.37;2.90;;;;;;;15.15;42.79;101590.56;5106610;27;20193;-70
2022/04/27 11:47:33;;;;;;;4.30;3.00;;;;;;;15.08;40.92;101592.50;5106812;27;20206;-70
2022/04/27 11:50:08;;;;;;;4.57;3.17;;;;;;;15.18;42.87;101592.22;5105323;28;20197;-70
2022/04/27 11:53:06;;;;;;;3.50;2.80;;;;;;;15.40;39.68;101603.81;5106197;28;20269;-71
2022/04/27 11:55:50;;;;;;;3.57;3.00;;;;;;;15.42;39.57;101593.25;5106111;27;20592;-70
2022/04/27 11:58:38;;;;;;;3.30;3.00;;;;;;;15.42;40.37;101593.25;5106660;28;20210;-70
2022/04/27 12:01:14;;;;;;;3.83;2.67;;;;;;;15.46;41.51;101585.25;5104026;27;20194;-70
2022/04/27 12:03:49;;;;;;;3.30;3.00;;;;;;;15.71;40.61;101587.09;5105011;28;20192;-70
2022/04/27 12:06:21;;;;;;;6.43;3.13;;;;;;;15.85;40.60;101592.78;5107030;28;20200;-70
2022/04/27 12:08:54;;;;;;;4.00;3.10;;;;;;;15.84;39.84;101591.06;5107170;28;20288;-70
2022/04/27 12:11:31;;;;;;;5.70;2.87;;;;;;;15.95;39.66;101600.38;5102067;28;20245;-71
2022/04/27 12:16:58;;;;;;;4.87;3.17;;;;;;;16.00;40.16;101586.13;5105562;28;20339;-71
2022/04/27 12:19:28;;;;;;;3.53;3.00;;;;;;;16.14;39.62;101580.41;5103238;28;20559;-71
2022/04/27 12:22:12;;;;;;;7.93;4.53;;;;;;;16.13;39.95;101590.97;5107234;27;20553;-70
2022/04/27 12:24:42;;;;;;;4.83;3.93;;;;;;;16.04;40.15;101584.25;5105197;28;20193;-70
2022/04/27 12:27:17;;;;;;;4.60;3.10;;;;;;;16.03;37.56;101587.81;5102737;28;20434;-70
2022/04/27 12:29:45;;;;;;;6.10;5.13;;;;;;;16.10;38.39;101581.44;5105511;28;20556;-70
2022/04/27 12:32:11;;;;;;;4.70;3.70;;;;;;;16.18;38.98;101571.53;5104371;28;20208;-70
2022/04/27 12:37:32;;;;;;;4.17;2.90;;;;;;;16.56;37.03;101568.44;5099769;28;20706;-70
2022/04/27 12:40:13;;;;;;;5.53;3.57;;;;;;;16.53;37.97;101565.91;5105314;27;20211;-70
2022/04/27 12:43:00;;;;;;;5.73;4.23;;;;;;;16.40;38.16;101571.63;5103449;28;20266;-71
2022/04/27 12:45:29;;;;;;;9.87;5.17;;;;;;;16.47;41.02;101562.59;5105867;28;20515;-71
2022/04/27 12:47:55;;;;;;;4.33;3.43;;;;;;;16.39;39.58;101567.28;5105717;28;20209;-70
2022/04/27 12:50:22;;;;;;;6.70;4.00;;;;;;;16.11;38.48;101561.25;5105621;28;20197;-70
2022/04/27 12:52:49;;;;;;;5.20;3.27;;;;;;;15.96;39.28;101560.00;5105563;28;20201;-70
2022/04/27 12:55:16;;;;;;;4.13;2.97;;;;;;;16.18;39.86;101550.47;5104404;28;20205;-70
2022/04/27 12:57:44;;;;;;;3.70;3.40;;;;;;;16.58;39.06;101556.94;5103135;28;20220;-70
2022/04/27 13:00:12;;;;;;;4.53;3.87;;;;;;;16.83;39.65;101553.38;5104357;28;20208;-70
2022/04/27 13:02:39;;;;;;;5.47;3.47;;;;;;;16.96;37.57;101549.41;5106273;27;20208;-70
2022/04/27 13:05:08;;;;;;;3.93;3.20;;;;;;;16.95;36.04;101560.00;5105615;28;20238;-70
2022/04/27 13:07:34;;;;;;;9.23;4.33;;;;;;;16.78;37.75;101555.34;5103451;28;20699;-70
2022/04/27 13:12:45;;;;;;;5.43;3.93;;;;;;;16.11;38.49;101559.47;5103347;28;20193;-70